Seana C — WDJ3319 — position and weather

sailwx.info

Track history (hours):
 
Tides and Currents Weather Stations Pressure Air Temp Water Temp Dewpoint Dewpoint Depression Visibility Wind Speed Wind Dir Waves Ship Positions

Seana C

Owner: Curtin Maritime Corp, long beach, CA. More information available from US FCC via Universal Licensing System and Coast Guard Vessel Documentation Center.

Last reported at 2017-Oct-17 11:30 UTC. Time now 2017-Oct-17 11:40 UTC.
Position N 38°02' W 122°22'.

Length 21 m; draft 3 m.

Type: Tug. MMSI: 367766860.

Date/timePositionNaut miles runAvg speedWind from/ knotsBaromVisibWave heightAir tempDewpointWater temp
2017-Oct-17 11:30N 38°02' W 122°22'610.8
2017-Oct-17 10:58N 38°04' W 122°15'4 7.0
2017-Oct-17 10:25N 38°08' W 122°17'1 1.2
2017-Oct-17 09:46N 38°07' W 122°18'0 0.0
2017-Oct-17 08:13N 38°07' W 122°18'0 1.1
2017-Oct-17 07:46N 38°07' W 122°17'1 3.2
2017-Oct-17 07:29N 38°07' W 122°16'1 0.5
2017-Oct-17 05:09N 38°07' W 122°18'1 4.3
2017-Oct-17 05:00N 38°07' W 122°17'1 0.2
2017-Oct-17 02:19N 38°07' W 122°18'1 3.0
2017-Oct-17 01:58N 38°07' W 122°17'3 5.3
2017-Oct-17 01:26N 38°04' W 122°15'2 4.4
2017-Oct-17 00:57N 38°03' W 122°17'2 3.4
2017-Oct-17 00:30N 38°03' W 122°19'2 3.6
2017-Oct-16 23:56N 38°02' W 122°21'2 4.4
2017-Oct-16 23:30N 38°01' W 122°23'2 4.6
2017-Oct-16 23:00N 37°59' W 122°25'2 4.6
2017-Oct-16 22:30N 37°57' W 122°26'1 3.0
2017-Oct-16 22:00N 37°55' W 122°25'4 8.0
2017-Oct-16 21:30N 37°59' W 122°25'4 8.4
2017-Oct-16 21:00N 38°02' W 122°21'6 5.7
2017-Oct-16 20:02N 38°06' W 122°16'1 6.3
2017-Oct-16 19:52N 38°07' W 122°16'1 0.3
2017-Oct-16 17:43N 38°07' W 122°17'2 6.9
2017-Oct-16 17:30N 38°06' W 122°16'2 1.2
2017-Oct-16 15:41N 38°07' W 122°18'1 0.7
2017-Oct-16 14:48N 38°07' W 122°17'0 0.5
2017-Oct-16 13:59N 38°07' W 122°18'0 0.0
2017-Oct-16 12:17N 38°07' W 122°18'1 1.4
2017-Oct-16 11:55N 38°07' W 122°17'2 4.3
2017-Oct-16 11:26N 38°06' W 122°15'2 3.7
2017-Oct-16 11:00N 38°04' W 122°15'2 3.1
2017-Oct-16 10:12N 38°03' W 122°18'1 3.7
2017-Oct-16 10:00N 38°03' W 122°19'2 4.2
2017-Oct-16 09:30N 38°02' W 122°21'2 4.2
2017-Oct-16 09:00N 38°01' W 122°23'2 4.3
2017-Oct-16 08:30N 37°59' W 122°25'2 3.2
2017-Oct-16 08:00N 38°00' W 122°24'4 7.8
2017-Oct-16 07:30N 38°03' W 122°20'4 6.6
2017-Oct-16 06:53N 38°04' W 122°15'3 5.9
2017-Oct-16 06:22N 38°07' W 122°17'1 1.5
2017-Oct-16 05:38N 38°07' W 122°18'0 0.0
2017-Oct-16 05:27N 38°07' W 122°18'0 0.0
2017-Oct-16 04:30N 38°07' W 122°18'1 2.2
2017-Oct-16 03:58N 38°07' W 122°17'1 1.3
2017-Oct-16 03:30N 38°06' W 122°16'2 0.8
2017-Oct-16 01:41N 38°07' W 122°18'1 2.8
2017-Oct-16 01:30N 38°07' W 122°17'3 6.1
2017-Oct-16 01:00N 38°05' W 122°15'2 4.5
2017-Oct-16 00:27N 38°03' W 122°17'2 4.3
2017-Oct-16 00:00N 38°03' W 122°20'2 4.7
2017-Oct-15 23:30N 38°02' W 122°22'4 6.9
2017-Oct-15 23:00N 38°03' W 122°18'4 3.4
2017-Oct-15 21:41N 38°07' W 122°17'1 0.3
2017-Oct-15 19:39N 38°07' W 122°18'1 3.9
2017-Oct-15 19:23N 38°07' W 122°17'0 0.0
2017-Oct-15 19:00N 38°07' W 122°17'1 0.5
2017-Oct-15 17:29N 38°07' W 122°17'1 1.9
2017-Oct-15 16:58N 38°06' W 122°16'2 3.3
2017-Oct-15 16:30N 38°07' W 122°18'0 0.0
2017-Oct-15 16:00N 38°07' W 122°18'0 0.0
2017-Oct-15 15:29N 38°07' W 122°18'1 1.6
2017-Oct-15 15:00N 38°07' W 122°17'1 0.3
2017-Oct-15 12:43N 38°07' W 122°18'0 1.8
2017-Oct-15 12:29N 38°07' W 122°17'2 5.2
2017-Oct-15 12:00N 38°05' W 122°15'2 3.9
2017-Oct-15 11:30N 38°04' W 122°16'2 3.8
2017-Oct-15 11:00N 38°03' W 122°19'3 5.9
2017-Oct-15 10:29N 38°04' W 122°15'4 7.7
2017-Oct-15 10:00N 38°07' W 122°17'1 0.7
2017-Oct-15 09:01N 38°07' W 122°18'0 0.0
2017-Oct-15 08:40N 38°07' W 122°18'0 0.4
2017-Oct-15 08:14N 38°07' W 122°18'1 3.0
2017-Oct-15 08:00N 38°07' W 122°17'2 4.1
2017-Oct-15 07:29N 38°05' W 122°15'2 5.0
2017-Oct-15 07:00N 38°07' W 122°17'0 0.0
2017-Oct-15 05:03N 38°07' W 122°17'0 6.3
2017-Oct-15 04:59N 38°07' W 122°17'3 6.9
2017-Oct-15 04:30N 38°04' W 122°15'4 7.5
2017-Oct-15 04:00N 38°02' W 122°20'3 6.4
2017-Oct-15 03:29N 38°01' W 122°23'4 6.3
2017-Oct-15 02:51N 37°57' W 122°26'3 7.5
2017-Oct-15 02:30N 37°55' W 122°25'1 1.3
2017-Oct-15 02:00N 37°54' W 122°24'1 1.1
2017-Oct-15 01:30N 37°55' W 122°23'0 0.0
2017-Oct-15 01:00N 37°55' W 122°23'0 0.0
2017-Oct-15 00:30N 37°54' W 122°23'0 0.0
2017-Oct-15 00:00N 37°55' W 122°23'0 0.0
2017-Oct-14 23:30N 37°55' W 122°23'0 0.0
2017-Oct-14 23:00N 37°55' W 122°23'0 0.0
2017-Oct-14 22:30N 37°55' W 122°23'0 0.1
2017-Oct-14 22:00N 37°54' W 122°23'4 6.2
2017-Oct-14 21:23N 37°58' W 122°26'3 7.3
2017-Oct-14 20:55N 38°01' W 122°24'3 6.0
2017-Oct-14 20:30N 38°02' W 122°21'6 4.8
2017-Oct-14 19:17N 38°07' W 122°17'1 0.5
2017-Oct-14 17:50N 38°07' W 122°17'2 6.5
2017-Oct-14 17:28N 38°05' W 122°15'2 2.7
2017-Oct-14 16:53N 38°07' W 122°16'1 1.0
2017-Oct-14 15:34N 38°07' W 122°18'1 2.3
2017-Oct-14 15:17N 38°07' W 122°17'1 2.0
2017-Oct-14 14:46N 38°06' W 122°16'1 0.5
2017-Oct-14 12:47N 38°07' W 122°17'2 5.7
2017-Oct-14 12:30N 38°06' W 122°16'2 4.5
2017-Oct-14 12:00N 38°04' W 122°16'2 4.4
2017-Oct-14 11:30N 38°03' W 122°18'2 4.5
2017-Oct-14 11:00N 38°02' W 122°21'2 5.0
2017-Oct-14 10:30N 38°01' W 122°24'2 4.9
2017-Oct-14 10:00N 37°59' W 122°26'2 3.3
2017-Oct-14 09:30N 37°57' W 122°26'2 4.4
2017-Oct-14 09:00N 37°55' W 122°25'2 4.3
2017-Oct-14 08:30N 37°54' W 122°22'1 1.4
2017-Oct-14 08:00N 37°55' W 122°22'0 0.0
2017-Oct-14 07:30N 37°55' W 122°22'0 0.0
2017-Oct-14 07:00N 37°55' W 122°22'1 1.2
2017-Oct-14 06:30N 37°54' W 122°22'1 2.4
2017-Oct-14 06:00N 37°54' W 122°23'3 6.9
2017-Oct-14 05:30N 37°57' W 122°26'4 7.6
2017-Oct-14 05:00N 38°01' W 122°24'3 6.5
2017-Oct-14 04:28N 38°02' W 122°20'4 6.9
2017-Oct-14 03:52N 38°04' W 122°15'2 6.0
2017-Oct-14 03:29N 38°06' W 122°16'2 1.4
2017-Oct-14 02:05N 38°07' W 122°18'0 1.6
2017-Oct-14 01:47N 38°07' W 122°17'1 4.3
2017-Oct-14 01:30N 38°06' W 122°16'1 2.7
2017-Oct-14 00:59N 38°07' W 122°18'0 0.2
2017-Oct-13 23:33N 38°07' W 122°18'0 1.1
2017-Oct-13 23:19N 38°07' W 122°18'1 4.0
2017-Oct-13 23:00N 38°06' W 122°16'3 4.7
2017-Oct-13 22:26N 38°04' W 122°15'2 4.1
2017-Oct-13 21:57N 38°03' W 122°18'3 4.6
2017-Oct-13 21:24N 38°02' W 122°21'2 5.1
2017-Oct-13 20:59N 38°01' W 122°23'2 3.3
2017-Oct-13 20:30N 37°60' W 122°25'5 9.0
2017-Oct-13 20:00N 38°02' W 122°20'4 8.7
2017-Oct-13 19:29N 38°05' W 122°15'3 3.0
2017-Oct-13 18:19N 38°07' W 122°18'0 0.0
2017-Oct-13 18:00N 38°07' W 122°18'1 2.6
2017-Oct-13 17:30N 38°07' W 122°16'3 5.9
2017-Oct-13 17:00N 38°04' W 122°16'0 0.9
2017-Oct-13 16:30N 38°04' W 122°15'2 4.9
2017-Oct-13 16:00N 38°06' W 122°16'2 3.4
2017-Oct-13 15:30N 38°07' W 122°18'0 0.1
2017-Oct-13 14:25N 38°07' W 122°18'2 5.3
2017-Oct-13 14:00N 38°06' W 122°16'3 5.4
2017-Oct-13 13:30N 38°03' W 122°17'4 5.3
2017-Oct-13 12:50N 38°02' W 122°21'3 8.1
2017-Oct-13 12:30N 38°03' W 122°18'3 5.9
2017-Oct-13 11:58N 38°05' W 122°15'2 1.4
2017-Oct-13 10:13N 38°07' W 122°17'1 2.0
2017-Oct-13 09:58N 38°07' W 122°17'3 6.1
2017-Oct-13 09:30N 38°05' W 122°15'2 3.1
2017-Oct-13 09:00N 38°04' W 122°16'4 6.2
2017-Oct-13 08:24N 38°07' W 122°17'1 0.4
2017-Oct-13 06:46N 38°07' W 122°18'1 2.6
2017-Oct-13 06:30N 38°07' W 122°17'2 4.4
2017-Oct-13 06:00N 38°05' W 122°15'2 3.3
2017-Oct-13 05:28N 38°04' W 122°16'3 5.6
2017-Oct-13 05:00N 38°03' W 122°19'3 5.8
2017-Oct-13 04:30N 38°01' W 122°22'3 4.9
2017-Oct-13 03:59N 38°03' W 122°20'4 7.0
2017-Oct-13 03:28N 38°04' W 122°15'3 5.8
2017-Oct-13 02:59N 38°06' W 122°16'1 0.8
2017-Oct-13 01:23N 38°07' W 122°18'0 0.0
2017-Oct-12 22:57N 38°07' W 122°18'2 5.5
2017-Oct-12 22:29N 38°05' W 122°15'3 4.4
2017-Oct-12 21:48N 38°03' W 122°18'2 5.3
2017-Oct-12 21:29N 38°02' W 122°20'3 6.2
2017-Oct-12 21:00N 38°01' W 122°23'4 6.2
2017-Oct-12 20:21N 37°58' W 122°26'2 6.0
2017-Oct-12 20:00N 37°56' W 122°25'1 1.9
2017-Oct-12 19:30N 37°56' W 122°26'5 8.5
2017-Oct-12 18:57N 38°01' W 122°23'4 9.2
2017-Oct-12 18:30N 38°03' W 122°19'5 6.1
2017-Oct-12 17:45N 38°07' W 122°17'1 2.7
2017-Oct-12 17:28N 38°07' W 122°18'0 0.0
2017-Oct-12 16:52N 38°07' W 122°18'1 0.9
2017-Oct-12 16:06N 38°07' W 122°17'0 4.0
2017-Oct-12 15:59N 38°07' W 122°17'3 6.7
2017-Oct-12 15:30N 38°04' W 122°15'5 7.8
2017-Oct-12 14:50N 38°02' W 122°21'2 3.3
2017-Oct-12 14:21N 38°03' W 122°20'2 6.9
2017-Oct-12 14:00N 38°03' W 122°17'2 4.5
2017-Oct-12 13:29N 38°05' W 122°15'3 5.1
2017-Oct-12 12:57N 38°07' W 122°18'0 0.0
2017-Oct-12 12:30N 38°07' W 122°18'0 0.4
2017-Oct-12 11:59N 38°07' W 122°18'2 3.3
2017-Oct-12 11:29N 38°06' W 122°16'2 2.9
2017-Oct-12 10:55N 38°07' W 122°18'0 0.0
2017-Oct-12 09:33N 38°07' W 122°18'0 2.3
2017-Oct-12 09:26N 38°07' W 122°17'2 4.3
2017-Oct-12 09:00N 38°06' W 122°16'2 3.7
2017-Oct-12 08:22N 38°04' W 122°16'1 1.7
2017-Oct-12 07:54N 38°03' W 122°17'4 6.9
2017-Oct-12 07:17N 38°08' W 122°17'0 0.2
2017-Oct-12 05:18N 38°07' W 122°17'2 4.6
2017-Oct-12 04:53N 38°06' W 122°16'2 3.9
2017-Oct-12 04:29N 38°04' W 122°15'4 5.4
2017-Oct-12 03:44N 38°02' W 122°19'2 5.9
2017-Oct-12 03:26N 38°02' W 122°21'2 5.6
2017-Oct-12 03:00N 38°00' W 122°24'2 3.2
2017-Oct-12 02:30N 38°01' W 122°22'5 7.9
2017-Oct-12 01:54N 38°03' W 122°17'3 0.4
2017-Oct-11 18:14N 38°02' W 122°21'1 5.9
2017-Oct-11 18:00N 38°03' W 122°19'5 5.9
2017-Oct-11 17:10N 38°07' W 122°17'4 0.2
2017-Oct-10 23:55N 38°03' W 122°17'2 4.9
2017-Oct-10 23:25N 38°05' W 122°15'2 1.2
2017-Oct-10 21:19N 38°07' W 122°17'0 0.0
2017-Oct-10 18:42N 38°07' W 122°17'2 5.2
2017-Oct-10 18:17N 38°05' W 122°15'1 4.7
2017-Oct-10 18:00N 38°04' W 122°15'2 4.6
2017-Oct-10 17:30N 38°03' W 122°18'3 5.1
2017-Oct-10 16:51N 38°02' W 122°21'2 5.3
2017-Oct-10 16:28N 38°01' W 122°24'3 5.3
2017-Oct-10 15:57N 37°59' W 122°26'2 5.1
2017-Oct-10 15:30N 37°56' W 122°26'2 3.8
2017-Oct-10 15:00N 37°55' W 122°25'7 6.6
2017-Oct-10 13:54N 38°02' W 122°22'3 6.4
2017-Oct-10 13:30N 38°03' W 122°19'4 5.7
2017-Oct-10 12:53N 38°04' W 122°15'4 1.7
2017-Oct-10 10:34N 38°07' W 122°18'0 5.3
2017-Oct-10 10:30N 38°07' W 122°17'0 0.1
2017-Oct-10 07:46N 38°07' W 122°18'1 1.7
2017-Oct-10 07:26N 38°07' W 122°17'3 6.1
2017-Oct-10 07:00N 38°05' W 122°15'2 3.8
2017-Oct-10 06:23N 38°03' W 122°17'2 4.1
2017-Oct-10 05:56N 38°03' W 122°19'2 4.1
2017-Oct-10 05:20N 38°02' W 122°22'2 4.8
2017-Oct-10 05:00N 38°01' W 122°24'3 5.2
2017-Oct-10 04:20N 38°02' W 122°20'5 7.5
2017-Oct-10 03:38N 38°07' W 122°17'1 0.3
2017-Oct-10 01:51N 38°07' W 122°17'1 4.0
2017-Oct-10 01:30N 38°06' W 122°16'3 4.0
2017-Oct-10 00:52N 38°04' W 122°15'3 1.3
2017-Oct-09 22:10N 38°07' W 122°17'0 0.0
2017-Oct-09 18:41N 38°07' W 122°17'2 6.3
2017-Oct-09 18:19N 38°05' W 122°15'3 3.4
2017-Oct-09 17:27N 38°03' W 122°18'4 0.3
2017-Oct-09 01:41N 38°07' W 122°17'0 0.0
2017-Oct-09 01:27N 38°07' W 122°17'0 0.0
2017-Oct-09 00:58N 38°07' W 122°17'0 0.0
2017-Oct-09 00:30N 38°07' W 122°17'0 0.0
2017-Oct-09 00:00N 38°07' W 122°17'0 0.0
2017-Oct-08 05:17N 38°07' W 122°17'0 0.6
2017-Oct-08 04:41N 38°08' W 122°17'0 0.1
2017-Oct-08 02:07N 38°07' W 122°17'1 4.0
2017-Oct-08 02:00N 38°07' W 122°17'2 3.8
2017-Oct-08 01:30N 38°05' W 122°15'2 2.9
2017-Oct-08 00:51N 38°04' W 122°17'5 5.5
2017-Oct-07 23:59N 38°02' W 122°22'3 5.4
2017-Oct-07 23:30N 38°00' W 122°25'3 5.1
2017-Oct-07 22:56N 37°57' W 122°26'3 5.4
2017-Oct-07 22:28N 37°60' W 122°25'4 7.5
2017-Oct-07 21:58N 38°02' W 122°21'5 6.7
2017-Oct-07 21:11N 38°04' W 122°15'4 1.2
2017-Oct-07 17:53N 38°07' W 122°18'1 2.0
2017-Oct-07 17:30N 38°07' W 122°17'3 5.8
2017-Oct-07 17:00N 38°05' W 122°15'6 3.8
2017-Oct-07 15:27N 38°02' W 122°21'2 4.8
2017-Oct-07 15:00N 38°01' W 122°24'1 1.0
2017-Oct-07 14:28N 38°01' W 122°23'4 8.8
2017-Oct-07 13:58N 38°03' W 122°18'3 7.0
2017-Oct-07 13:30N 38°05' W 122°15'2 1.6
2017-Oct-07 12:07N 38°07' W 122°17'1 4.7
2017-Oct-07 11:59N 38°07' W 122°17'  
Track history (hours):
 
Tides and Currents Weather Stations Pressure Air Temp Water Temp Dewpoint Dewpoint Depression Visibility Wind Speed Wind Dir Waves Ship Positions

Seana C

Owner: Curtin Maritime Corp, long beach, CA. More information available from US FCC via Universal Licensing System and Coast Guard Vessel Documentation Center.

Last reported at 2017-Oct-17 11:30 UTC. Time now 2017-Oct-17 11:40 UTC.
Position N 38°02' W 122°22'.

Length 21 m; draft 3 m.

Type: Tug. MMSI: 367766860.

Date/timePositionNaut miles runAvg speedWind from/ knotsBaromVisibWave heightAir tempDewpointWater temp
2017-Oct-17 11:30N 38°02' W 122°22'610.8
2017-Oct-17 10:58N 38°04' W 122°15'4 7.0
2017-Oct-17 10:25N 38°08' W 122°17'1 1.2
2017-Oct-17 09:46N 38°07' W 122°18'0 0.0
2017-Oct-17 08:13N 38°07' W 122°18'0 1.1
2017-Oct-17 07:46N 38°07' W 122°17'1 3.2
2017-Oct-17 07:29N 38°07' W 122°16'1 0.5
2017-Oct-17 05:09N 38°07' W 122°18'1 4.3
2017-Oct-17 05:00N 38°07' W 122°17'1 0.2
2017-Oct-17 02:19N 38°07' W 122°18'1 3.0
2017-Oct-17 01:58N 38°07' W 122°17'3 5.3
2017-Oct-17 01:26N 38°04' W 122°15'2 4.4
2017-Oct-17 00:57N 38°03' W 122°17'2 3.4
2017-Oct-17 00:30N 38°03' W 122°19'2 3.6
2017-Oct-16 23:56N 38°02' W 122°21'2 4.4
2017-Oct-16 23:30N 38°01' W 122°23'2 4.6
2017-Oct-16 23:00N 37°59' W 122°25'2 4.6
2017-Oct-16 22:30N 37°57' W 122°26'1 3.0
2017-Oct-16 22:00N 37°55' W 122°25'4 8.0
2017-Oct-16 21:30N 37°59' W 122°25'4 8.4
2017-Oct-16 21:00N 38°02' W 122°21'6 5.7
2017-Oct-16 20:02N 38°06' W 122°16'1 6.3
2017-Oct-16 19:52N 38°07' W 122°16'1 0.3
2017-Oct-16 17:43N 38°07' W 122°17'2 6.9
2017-Oct-16 17:30N 38°06' W 122°16'2 1.2
2017-Oct-16 15:41N 38°07' W 122°18'1 0.7
2017-Oct-16 14:48N 38°07' W 122°17'0 0.5
2017-Oct-16 13:59N 38°07' W 122°18'0 0.0
2017-Oct-16 12:17N 38°07' W 122°18'1 1.4
2017-Oct-16 11:55N 38°07' W 122°17'2 4.3
2017-Oct-16 11:26N 38°06' W 122°15'2 3.7
2017-Oct-16 11:00N 38°04' W 122°15'2 3.1
2017-Oct-16 10:12N 38°03' W 122°18'1 3.7
2017-Oct-16 10:00N 38°03' W 122°19'2 4.2
2017-Oct-16 09:30N 38°02' W 122°21'2 4.2
2017-Oct-16 09:00N 38°01' W 122°23'2 4.3
2017-Oct-16 08:30N 37°59' W 122°25'2 3.2
2017-Oct-16 08:00N 38°00' W 122°24'4 7.8
2017-Oct-16 07:30N 38°03' W 122°20'4 6.6
2017-Oct-16 06:53N 38°04' W 122°15'3 5.9
2017-Oct-16 06:22N 38°07' W 122°17'1 1.5
2017-Oct-16 05:38N 38°07' W 122°18'0 0.0
2017-Oct-16 05:27N 38°07' W 122°18'0 0.0
2017-Oct-16 04:30N 38°07' W 122°18'1 2.2
2017-Oct-16 03:58N 38°07' W 122°17'1 1.3
2017-Oct-16 03:30N 38°06' W 122°16'2 0.8
2017-Oct-16 01:41N 38°07' W 122°18'1 2.8
2017-Oct-16 01:30N 38°07' W 122°17'3 6.1
2017-Oct-16 01:00N 38°05' W 122°15'2 4.5
2017-Oct-16 00:27N 38°03' W 122°17'2 4.3
2017-Oct-16 00:00N 38°03' W 122°20'2 4.7
2017-Oct-15 23:30N 38°02' W 122°22'4 6.9
2017-Oct-15 23:00N 38°03' W 122°18'4 3.4
2017-Oct-15 21:41N 38°07' W 122°17'1 0.3
2017-Oct-15 19:39N 38°07' W 122°18'1 3.9
2017-Oct-15 19:23N 38°07' W 122°17'0 0.0
2017-Oct-15 19:00N 38°07' W 122°17'1 0.5
2017-Oct-15 17:29N 38°07' W 122°17'1 1.9
2017-Oct-15 16:58N 38°06' W 122°16'2 3.3
2017-Oct-15 16:30N 38°07' W 122°18'0 0.0
2017-Oct-15 16:00N 38°07' W 122°18'0 0.0
2017-Oct-15 15:29N 38°07' W 122°18'1 1.6
2017-Oct-15 15:00N 38°07' W 122°17'1 0.3
2017-Oct-15 12:43N 38°07' W 122°18'0 1.8
2017-Oct-15 12:29N 38°07' W 122°17'2 5.2
2017-Oct-15 12:00N 38°05' W 122°15'2 3.9
2017-Oct-15 11:30N 38°04' W 122°16'2 3.8
2017-Oct-15 11:00N 38°03' W 122°19'3 5.9
2017-Oct-15 10:29N 38°04' W 122°15'4 7.7
2017-Oct-15 10:00N 38°07' W 122°17'1 0.7
2017-Oct-15 09:01N 38°07' W 122°18'0 0.0
2017-Oct-15 08:40N 38°07' W 122°18'0 0.4
2017-Oct-15 08:14N 38°07' W 122°18'1 3.0
2017-Oct-15 08:00N 38°07' W 122°17'2 4.1
2017-Oct-15 07:29N 38°05' W 122°15'2 5.0
2017-Oct-15 07:00N 38°07' W 122°17'0 0.0
2017-Oct-15 05:03N 38°07' W 122°17'0 6.3
2017-Oct-15 04:59N 38°07' W 122°17'3 6.9
2017-Oct-15 04:30N 38°04' W 122°15'4 7.5
2017-Oct-15 04:00N 38°02' W 122°20'3 6.4
2017-Oct-15 03:29N 38°01' W 122°23'4 6.3
2017-Oct-15 02:51N 37°57' W 122°26'3 7.5
2017-Oct-15 02:30N 37°55' W 122°25'1 1.3
2017-Oct-15 02:00N 37°54' W 122°24'1 1.1
2017-Oct-15 01:30N 37°55' W 122°23'0 0.0
2017-Oct-15 01:00N 37°55' W 122°23'0 0.0
2017-Oct-15 00:30N 37°54' W 122°23'0 0.0
2017-Oct-15 00:00N 37°55' W 122°23'0 0.0
2017-Oct-14 23:30N 37°55' W 122°23'0 0.0
2017-Oct-14 23:00N 37°55' W 122°23'0 0.0
2017-Oct-14 22:30N 37°55' W 122°23'0 0.1
2017-Oct-14 22:00N 37°54' W 122°23'4 6.2
2017-Oct-14 21:23N 37°58' W 122°26'3 7.3
2017-Oct-14 20:55N 38°01' W 122°24'3 6.0
2017-Oct-14 20:30N 38°02' W 122°21'6 4.8
2017-Oct-14 19:17N 38°07' W 122°17'1 0.5
2017-Oct-14 17:50N 38°07' W 122°17'2 6.5
2017-Oct-14 17:28N 38°05' W 122°15'2 2.7
2017-Oct-14 16:53N 38°07' W 122°16'1 1.0
2017-Oct-14 15:34N 38°07' W 122°18'1 2.3
2017-Oct-14 15:17N 38°07' W 122°17'1 2.0
2017-Oct-14 14:46N 38°06' W 122°16'1 0.5
2017-Oct-14 12:47N 38°07' W 122°17'2 5.7
2017-Oct-14 12:30N 38°06' W 122°16'2 4.5
2017-Oct-14 12:00N 38°04' W 122°16'2 4.4
2017-Oct-14 11:30N 38°03' W 122°18'2 4.5
2017-Oct-14 11:00N 38°02' W 122°21'2 5.0
2017-Oct-14 10:30N 38°01' W 122°24'2 4.9
2017-Oct-14 10:00N 37°59' W 122°26'2 3.3
2017-Oct-14 09:30N 37°57' W 122°26'2 4.4
2017-Oct-14 09:00N 37°55' W 122°25'2 4.3
2017-Oct-14 08:30N 37°54' W 122°22'1 1.4
2017-Oct-14 08:00N 37°55' W 122°22'0 0.0
2017-Oct-14 07:30N 37°55' W 122°22'0 0.0
2017-Oct-14 07:00N 37°55' W 122°22'1 1.2
2017-Oct-14 06:30N 37°54' W 122°22'1 2.4
2017-Oct-14 06:00N 37°54' W 122°23'3 6.9
2017-Oct-14 05:30N 37°57' W 122°26'4 7.6
2017-Oct-14 05:00N 38°01' W 122°24'3 6.5
2017-Oct-14 04:28N 38°02' W 122°20'4 6.9
2017-Oct-14 03:52N 38°04' W 122°15'2 6.0
2017-Oct-14 03:29N 38°06' W 122°16'2 1.4
2017-Oct-14 02:05N 38°07' W 122°18'0 1.6
2017-Oct-14 01:47N 38°07' W 122°17'1 4.3
2017-Oct-14 01:30N 38°06' W 122°16'1 2.7
2017-Oct-14 00:59N 38°07' W 122°18'0 0.2
2017-Oct-13 23:33N 38°07' W 122°18'0 1.1
2017-Oct-13 23:19N 38°07' W 122°18'1 4.0
2017-Oct-13 23:00N 38°06' W 122°16'3 4.7
2017-Oct-13 22:26N 38°04' W 122°15'2 4.1
2017-Oct-13 21:57N 38°03' W 122°18'3 4.6
2017-Oct-13 21:24N 38°02' W 122°21'2 5.1
2017-Oct-13 20:59N 38°01' W 122°23'2 3.3
2017-Oct-13 20:30N 37°60' W 122°25'5 9.0
2017-Oct-13 20:00N 38°02' W 122°20'4 8.7
2017-Oct-13 19:29N 38°05' W 122°15'3 3.0
2017-Oct-13 18:19N 38°07' W 122°18'0 0.0
2017-Oct-13 18:00N 38°07' W 122°18'1 2.6
2017-Oct-13 17:30N 38°07' W 122°16'3 5.9
2017-Oct-13 17:00N 38°04' W 122°16'0 0.9
2017-Oct-13 16:30N 38°04' W 122°15'2 4.9
2017-Oct-13 16:00N 38°06' W 122°16'2 3.4
2017-Oct-13 15:30N 38°07' W 122°18'0 0.1
2017-Oct-13 14:25N 38°07' W 122°18'2 5.3
2017-Oct-13 14:00N 38°06' W 122°16'3 5.4
2017-Oct-13 13:30N 38°03' W 122°17'4 5.3
2017-Oct-13 12:50N 38°02' W 122°21'3 8.1
2017-Oct-13 12:30N 38°03' W 122°18'3 5.9
2017-Oct-13 11:58N 38°05' W 122°15'2 1.4
2017-Oct-13 10:13N 38°07' W 122°17'1 2.0
2017-Oct-13 09:58N 38°07' W 122°17'3 6.1
2017-Oct-13 09:30N 38°05' W 122°15'2 3.1
2017-Oct-13 09:00N 38°04' W 122°16'4 6.2
2017-Oct-13 08:24N 38°07' W 122°17'1 0.4
2017-Oct-13 06:46N 38°07' W 122°18'1 2.6
2017-Oct-13 06:30N 38°07' W 122°17'2 4.4
2017-Oct-13 06:00N 38°05' W 122°15'2 3.3
2017-Oct-13 05:28N 38°04' W 122°16'3 5.6
2017-Oct-13 05:00N 38°03' W 122°19'3 5.8
2017-Oct-13 04:30N 38°01' W 122°22'3 4.9
2017-Oct-13 03:59N 38°03' W 122°20'4 7.0
2017-Oct-13 03:28N 38°04' W 122°15'3 5.8
2017-Oct-13 02:59N 38°06' W 122°16'1 0.8
2017-Oct-13 01:23N 38°07' W 122°18'0 0.0
2017-Oct-12 22:57N 38°07' W 122°18'2 5.5
2017-Oct-12 22:29N 38°05' W 122°15'3 4.4
2017-Oct-12 21:48N 38°03' W 122°18'2 5.3
2017-Oct-12 21:29N 38°02' W 122°20'3 6.2
2017-Oct-12 21:00N 38°01' W 122°23'4 6.2
2017-Oct-12 20:21N 37°58' W 122°26'2 6.0
2017-Oct-12 20:00N 37°56' W 122°25'1 1.9
2017-Oct-12 19:30N 37°56' W 122°26'5 8.5
2017-Oct-12 18:57N 38°01' W 122°23'4 9.2
2017-Oct-12 18:30N 38°03' W 122°19'5 6.1
2017-Oct-12 17:45N 38°07' W 122°17'1 2.7
2017-Oct-12 17:28N 38°07' W 122°18'0 0.0
2017-Oct-12 16:52N 38°07' W 122°18'1 0.9
2017-Oct-12 16:06N 38°07' W 122°17'0 4.0
2017-Oct-12 15:59N 38°07' W 122°17'3 6.7
2017-Oct-12 15:30N 38°04' W 122°15'5 7.8
2017-Oct-12 14:50N 38°02' W 122°21'2 3.3
2017-Oct-12 14:21N 38°03' W 122°20'2 6.9
2017-Oct-12 14:00N 38°03' W 122°17'2 4.5
2017-Oct-12 13:29N 38°05' W 122°15'3 5.1
2017-Oct-12 12:57N 38°07' W 122°18'0 0.0
2017-Oct-12 12:30N 38°07' W 122°18'0 0.4
2017-Oct-12 11:59N 38°07' W 122°18'2 3.3
2017-Oct-12 11:29N 38°06' W 122°16'2 2.9
2017-Oct-12 10:55N 38°07' W 122°18'0 0.0
2017-Oct-12 09:33N 38°07' W 122°18'0 2.3
2017-Oct-12 09:26N 38°07' W 122°17'2 4.3
2017-Oct-12 09:00N 38°06' W 122°16'2 3.7
2017-Oct-12 08:22N 38°04' W 122°16'1 1.7
2017-Oct-12 07:54N 38°03' W 122°17'4 6.9
2017-Oct-12 07:17N 38°08' W 122°17'0 0.2
2017-Oct-12 05:18N 38°07' W 122°17'2 4.6
2017-Oct-12 04:53N 38°06' W 122°16'2 3.9
2017-Oct-12 04:29N 38°04' W 122°15'4 5.4
2017-Oct-12 03:44N 38°02' W 122°19'2 5.9
2017-Oct-12 03:26N 38°02' W 122°21'2 5.6
2017-Oct-12 03:00N 38°00' W 122°24'2 3.2
2017-Oct-12 02:30N 38°01' W 122°22'5 7.9
2017-Oct-12 01:54N 38°03' W 122°17'3 0.4
2017-Oct-11 18:14N 38°02' W 122°21'1 5.9
2017-Oct-11 18:00N 38°03' W 122°19'5 5.9
2017-Oct-11 17:10N 38°07' W 122°17'4 0.2
2017-Oct-10 23:55N 38°03' W 122°17'2 4.9
2017-Oct-10 23:25N 38°05' W 122°15'2 1.2
2017-Oct-10 21:19N 38°07' W 122°17'0 0.0
2017-Oct-10 18:42N 38°07' W 122°17'2 5.2
2017-Oct-10 18:17N 38°05' W 122°15'1 4.7
2017-Oct-10 18:00N 38°04' W 122°15'2 4.6
2017-Oct-10 17:30N 38°03' W 122°18'3 5.1
2017-Oct-10 16:51N 38°02' W 122°21'2 5.3
2017-Oct-10 16:28N 38°01' W 122°24'3 5.3
2017-Oct-10 15:57N 37°59' W 122°26'2 5.1
2017-Oct-10 15:30N 37°56' W 122°26'2 3.8
2017-Oct-10 15:00N 37°55' W 122°25'7 6.6
2017-Oct-10 13:54N 38°02' W 122°22'3 6.4
2017-Oct-10 13:30N 38°03' W 122°19'4 5.7
2017-Oct-10 12:53N 38°04' W 122°15'4 1.7
2017-Oct-10 10:34N 38°07' W 122°18'0 5.3
2017-Oct-10 10:30N 38°07' W 122°17'0 0.1
2017-Oct-10 07:46N 38°07' W 122°18'1 1.7
2017-Oct-10 07:26N 38°07' W 122°17'3 6.1
2017-Oct-10 07:00N 38°05' W 122°15'2 3.8
2017-Oct-10 06:23N 38°03' W 122°17'2 4.1
2017-Oct-10 05:56N 38°03' W 122°19'2 4.1
2017-Oct-10 05:20N 38°02' W 122°22'2 4.8
2017-Oct-10 05:00N 38°01' W 122°24'3 5.2
2017-Oct-10 04:20N 38°02' W 122°20'5 7.5
2017-Oct-10 03:38N 38°07' W 122°17'1 0.3
2017-Oct-10 01:51N 38°07' W 122°17'1 4.0
2017-Oct-10 01:30N 38°06' W 122°16'3 4.0
2017-Oct-10 00:52N 38°04' W 122°15'3 1.3
2017-Oct-09 22:10N 38°07' W 122°17'0 0.0
2017-Oct-09 18:41N 38°07' W 122°17'2 6.3
2017-Oct-09 18:19N 38°05' W 122°15'3 3.4
2017-Oct-09 17:27N 38°03' W 122°18'4 0.3
2017-Oct-09 01:41N 38°07' W 122°17'0 0.0
2017-Oct-09 01:27N 38°07' W 122°17'0 0.0
2017-Oct-09 00:58N 38°07' W 122°17'0 0.0
2017-Oct-09 00:30N 38°07' W 122°17'0 0.0
2017-Oct-09 00:00N 38°07' W 122°17'0 0.0
2017-Oct-08 05:17N 38°07' W 122°17'0 0.6
2017-Oct-08 04:41N 38°08' W 122°17'0 0.1
2017-Oct-08 02:07N 38°07' W 122°17'1 4.0
2017-Oct-08 02:00N 38°07' W 122°17'2 3.8
2017-Oct-08 01:30N 38°05' W 122°15'2 2.9
2017-Oct-08 00:51N 38°04' W 122°17'5 5.5
2017-Oct-07 23:59N 38°02' W 122°22'3 5.4
2017-Oct-07 23:30N 38°00' W 122°25'3 5.1
2017-Oct-07 22:56N 37°57' W 122°26'3 5.4
2017-Oct-07 22:28N 37°60' W 122°25'4 7.5
2017-Oct-07 21:58N 38°02' W 122°21'5 6.7
2017-Oct-07 21:11N 38°04' W 122°15'4 1.2
2017-Oct-07 17:53N 38°07' W 122°18'1 2.0
2017-Oct-07 17:30N 38°07' W 122°17'3 5.8
2017-Oct-07 17:00N 38°05' W 122°15'6 3.8
2017-Oct-07 15:27N 38°02' W 122°21'2 4.8
2017-Oct-07 15:00N 38°01' W 122°24'1 1.0
2017-Oct-07 14:28N 38°01' W 122°23'4 8.8
2017-Oct-07 13:58N 38°03' W 122°18'3 7.0
2017-Oct-07 13:30N 38°05' W 122°15'2 1.6
2017-Oct-07 12:07N 38°07' W 122°17'1 4.7
2017-Oct-07 11:59N 38°07' W 122°17'  

Dump ship's entire track history